sensor_id;sensor_type;location;lat;lon;timestamp;P1;durP1;ratioP1;P2;durP2;ratioP2
44214;SDS011;29884;47.450;19.124;2023-08-08T00:02:06;0.10;;;0.00;;
44214;SDS011;29884;47.450;19.124;2023-08-08T00:04:33;0.00;;;0.00;;
44214;SDS011;29884;47.450;19.124;2023-08-08T00:06:59;0.00;;;0.00;;
44214;SDS011;29884;47.450;19.124;2023-08-08T00:09:24;0.10;;;0.00;;
44214;SDS011;29884;47.450;19.124;2023-08-08T00:11:50;0.05;;;0.00;;
44214;SDS011;29884;47.450;19.124;2023-08-08T00:14:16;0.57;;;0.00;;
44214;SDS011;29884;47.450;19.124;2023-08-08T00:16:41;0.13;;;0.00;;
44214;SDS011;29884;47.450;19.124;2023-08-08T00:19:07;0.32;;;0.00;;
44214;SDS011;29884;47.450;19.124;2023-08-08T00:21:33;0.00;;;0.00;;
44214;SDS011;29884;47.450;19.124;2023-08-08T00:23:59;0.20;;;0.10;;
44214;SDS011;29884;47.450;19.124;2023-08-08T00:26:24;0.10;;;0.00;;
44214;SDS011;29884;47.450;19.124;2023-08-08T00:28:50;0.00;;;0.00;;
44214;SDS011;29884;47.450;19.124;2023-08-08T00:31:16;0.00;;;0.00;;
44214;SDS011;29884;47.450;19.124;2023-08-08T00:33:42;0.00;;;0.00;;
44214;SDS011;29884;47.450;19.124;2023-08-08T00:36:08;0.00;;;0.00;;
44214;SDS011;29884;47.450;19.124;2023-08-08T00:38:34;0.10;;;0.00;;
44214;SDS011;29884;47.450;19.124;2023-08-08T00:40:59;0.13;;;0.08;;
44214;SDS011;29884;47.450;19.124;2023-08-08T00:43:25;0.38;;;0.00;;
44214;SDS011;29884;47.450;19.124;2023-08-08T00:45:51;0.00;;;0.00;;
44214;SDS011;29884;47.450;19.124;2023-08-08T00:48:17;0.08;;;0.00;;
44214;SDS011;29884;47.450;19.124;2023-08-08T00:50:44;0.00;;;0.00;;
44214;SDS011;29884;47.450;19.124;2023-08-08T00:53:13;0.40;;;0.10;;
44214;SDS011;29884;47.450;19.124;2023-08-08T00:55:40;0.10;;;0.10;;
44214;SDS011;29884;47.450;19.124;2023-08-08T00:58:06;0.13;;;0.03;;
44214;SDS011;29884;47.450;19.124;2023-08-08T01:00:32;0.10;;;0.10;;
44214;SDS011;29884;47.450;19.124;2023-08-08T01:02:58;0.10;;;0.10;;
44214;SDS011;29884;47.450;19.124;2023-08-08T01:05:23;0.10;;;0.10;;
44214;SDS011;29884;47.450;19.124;2023-08-08T01:07:59;0.52;;;0.10;;
44214;SDS011;29884;47.450;19.124;2023-08-08T01:10:41;0.30;;;0.10;;
44214;SDS011;29884;47.450;19.124;2023-08-08T01:13:11;0.20;;;0.10;;
44214;SDS011;29884;47.450;19.124;2023-08-08T01:15:44;0.10;;;0.10;;
44214;SDS011;29884;47.450;19.124;2023-08-08T01:18:11;0.10;;;0.10;;
44214;SDS011;29884;47.450;19.124;2023-08-08T01:20:39;0.10;;;0.00;;
44214;SDS011;29884;47.450;19.124;2023-08-08T01:23:09;0.20;;;0.10;;
44214;SDS011;29884;47.450;19.124;2023-08-08T01:25:39;1.42;;;0.20;;
44214;SDS011;29884;47.450;19.124;2023-08-08T01:28:06;0.10;;;0.10;;
44214;SDS011;29884;47.450;19.124;2023-08-08T01:30:32;0.30;;;0.10;;
44214;SDS011;29884;47.450;19.124;2023-08-08T01:32:58;0.10;;;0.10;;
44214;SDS011;29884;47.450;19.124;2023-08-08T01:35:25;0.32;;;0.10;;
44214;SDS011;29884;47.450;19.124;2023-08-08T01:37:57;0.47;;;0.10;;
44214;SDS011;29884;47.450;19.124;2023-08-08T01:40:33;0.10;;;0.00;;
44214;SDS011;29884;47.450;19.124;2023-08-08T01:43:00;0.30;;;0.10;;
44214;SDS011;29884;47.450;19.124;2023-08-08T01:45:26;0.20;;;0.10;;
44214;SDS011;29884;47.450;19.124;2023-08-08T01:47:52;0.10;;;0.10;;
44214;SDS011;29884;47.450;19.124;2023-08-08T01:50:19;0.13;;;0.10;;
44214;SDS011;29884;47.450;19.124;2023-08-08T01:52:46;0.20;;;0.10;;
44214;SDS011;29884;47.450;19.124;2023-08-08T01:55:12;0.20;;;0.10;;
44214;SDS011;29884;47.450;19.124;2023-08-08T01:57:38;0.25;;;0.10;;
44214;SDS011;29884;47.450;19.124;2023-08-08T02:00:04;0.30;;;0.10;;
44214;SDS011;29884;47.450;19.124;2023-08-08T02:02:31;0.10;;;0.10;;
44214;SDS011;29884;47.450;19.124;2023-08-08T02:04:57;0.50;;;0.10;;
44214;SDS011;29884;47.450;19.124;2023-08-08T02:07:23;0.28;;;0.10;;
44214;SDS011;29884;47.450;19.124;2023-08-08T02:09:49;0.30;;;0.22;;
44214;SDS011;29884;47.450;19.124;2023-08-08T02:12:16;0.10;;;0.10;;
44214;SDS011;29884;47.450;19.124;2023-08-08T02:14:41;0.17;;;0.10;;
44214;SDS011;29884;47.450;19.124;2023-08-08T02:17:07;0.10;;;0.08;;
44214;SDS011;29884;47.450;19.124;2023-08-08T02:19:33;0.40;;;0.10;;
44214;SDS011;29884;47.450;19.124;2023-08-08T02:21:58;0.30;;;0.10;;
44214;SDS011;29884;47.450;19.124;2023-08-08T02:24:24;0.30;;;0.17;;
44214;SDS011;29884;47.450;19.124;2023-08-08T02:26:50;0.47;;;0.15;;
44214;SDS011;29884;47.450;19.124;2023-08-08T02:29:15;0.38;;;0.10;;
44214;SDS011;29884;47.450;19.124;2023-08-08T02:31:41;0.20;;;0.10;;
44214;SDS011;29884;47.450;19.124;2023-08-08T02:34:07;0.40;;;0.10;;
44214;SDS011;29884;47.450;19.124;2023-08-08T02:36:33;1.10;;;0.10;;
44214;SDS011;29884;47.450;19.124;2023-08-08T02:38:58;0.38;;;0.10;;
44214;SDS011;29884;47.450;19.124;2023-08-08T02:41:24;0.47;;;0.10;;
44214;SDS011;29884;47.450;19.124;2023-08-08T02:43:50;0.35;;;0.20;;
44214;SDS011;29884;47.450;19.124;2023-08-08T02:46:16;0.13;;;0.10;;
44214;SDS011;29884;47.450;19.124;2023-08-08T02:48:41;0.35;;;0.10;;
44214;SDS011;29884;47.450;19.124;2023-08-08T02:51:07;0.20;;;0.10;;
44214;SDS011;29884;47.450;19.124;2023-08-08T02:53:33;0.30;;;0.10;;
44214;SDS011;29884;47.450;19.124;2023-08-08T02:55:58;0.10;;;0.10;;
44214;SDS011;29884;47.450;19.124;2023-08-08T02:58:24;0.25;;;0.20;;
44214;SDS011;29884;47.450;19.124;2023-08-08T03:00:50;0.25;;;0.10;;
44214;SDS011;29884;47.450;19.124;2023-08-08T03:03:17;0.40;;;0.20;;
44214;SDS011;29884;47.450;19.124;2023-08-08T03:05:43;0.30;;;0.10;;
44214;SDS011;29884;47.450;19.124;2023-08-08T03:08:10;1.40;;;0.10;;
44214;SDS011;29884;47.450;19.124;2023-08-08T03:10:36;0.10;;;0.10;;
44214;SDS011;29884;47.450;19.124;2023-08-08T03:13:02;0.20;;;0.10;;
44214;SDS011;29884;47.450;19.124;2023-08-08T03:15:28;0.05;;;0.05;;
44214;SDS011;29884;47.450;19.124;2023-08-08T03:17:54;0.20;;;0.10;;
44214;SDS011;29884;47.450;19.124;2023-08-08T03:20:20;0.20;;;0.13;;
44214;SDS011;29884;47.450;19.124;2023-08-08T03:22:46;1.10;;;0.10;;
44214;SDS011;29884;47.450;19.124;2023-08-08T03:25:12;0.17;;;0.17;;
44214;SDS011;29884;47.450;19.124;2023-08-08T03:27:38;0.30;;;0.10;;
44214;SDS011;29884;47.450;19.124;2023-08-08T03:30:03;0.20;;;0.10;;
44214;SDS011;29884;47.450;19.124;2023-08-08T03:32:29;0.93;;;0.20;;
44214;SDS011;29884;47.450;19.124;2023-08-08T03:34:55;0.70;;;0.10;;
44214;SDS011;29884;47.450;19.124;2023-08-08T03:37:21;0.45;;;0.20;;
44214;SDS011;29884;47.450;19.124;2023-08-08T03:39:47;1.27;;;0.20;;
44214;SDS011;29884;47.450;19.124;2023-08-08T03:42:12;0.40;;;0.10;;
44214;SDS011;29884;47.450;19.124;2023-08-08T03:44:38;1.38;;;0.28;;
44214;SDS011;29884;47.450;19.124;2023-08-08T03:47:04;1.23;;;0.20;;
44214;SDS011;29884;47.450;19.124;2023-08-08T03:49:30;1.15;;;0.20;;
44214;SDS011;29884;47.450;19.124;2023-08-08T03:51:55;1.25;;;0.28;;
44214;SDS011;29884;47.450;19.124;2023-08-08T03:54:21;0.88;;;0.20;;
44214;SDS011;29884;47.450;19.124;2023-08-08T03:56:47;1.88;;;0.20;;
44214;SDS011;29884;47.450;19.124;2023-08-08T03:59:13;0.25;;;0.10;;
44214;SDS011;29884;47.450;19.124;2023-08-08T04:01:38;1.40;;;0.30;;
44214;SDS011;29884;47.450;19.124;2023-08-08T04:04:04;1.08;;;0.40;;
44214;SDS011;29884;47.450;19.124;2023-08-08T04:06:30;0.10;;;0.10;;
44214;SDS011;29884;47.450;19.124;2023-08-08T04:08:56;1.75;;;0.20;;
44214;SDS011;29884;47.450;19.124;2023-08-08T04:11:22;0.50;;;0.20;;
44214;SDS011;29884;47.450;19.124;2023-08-08T04:13:47;0.28;;;0.20;;
44214;SDS011;29884;47.450;19.124;2023-08-08T04:16:13;0.30;;;0.10;;
44214;SDS011;29884;47.450;19.124;2023-08-08T04:18:39;0.30;;;0.20;;
44214;SDS011;29884;47.450;19.124;2023-08-08T04:21:05;1.02;;;0.40;;
44214;SDS011;29884;47.450;19.124;2023-08-08T04:23:31;0.50;;;0.20;;
44214;SDS011;29884;47.450;19.124;2023-08-08T04:25:56;0.35;;;0.10;;
44214;SDS011;29884;47.450;19.124;2023-08-08T04:28:22;0.55;;;0.20;;
44214;SDS011;29884;47.450;19.124;2023-08-08T04:30:48;0.30;;;0.20;;
44214;SDS011;29884;47.450;19.124;2023-08-08T04:33:14;0.60;;;0.20;;
44214;SDS011;29884;47.450;19.124;2023-08-08T04:35:40;0.20;;;0.20;;
44214;SDS011;29884;47.450;19.124;2023-08-08T04:38:06;0.50;;;0.20;;
44214;SDS011;29884;47.450;19.124;2023-08-08T04:40:31;1.02;;;0.20;;
44214;SDS011;29884;47.450;19.124;2023-08-08T04:42:57;0.40;;;0.20;;
44214;SDS011;29884;47.450;19.124;2023-08-08T04:45:22;0.63;;;0.20;;
44214;SDS011;29884;47.450;19.124;2023-08-08T04:47:48;0.43;;;0.20;;
44214;SDS011;29884;47.450;19.124;2023-08-08T04:50:14;0.30;;;0.20;;
44214;SDS011;29884;47.450;19.124;2023-08-08T04:52:40;0.10;;;0.10;;
44214;SDS011;29884;47.450;19.124;2023-08-08T04:55:06;0.40;;;0.13;;
44214;SDS011;29884;47.450;19.124;2023-08-08T04:57:32;0.30;;;0.20;;
44214;SDS011;29884;47.450;19.124;2023-08-08T04:59:57;0.30;;;0.20;;
44214;SDS011;29884;47.450;19.124;2023-08-08T05:02:26;0.80;;;0.20;;
44214;SDS011;29884;47.450;19.124;2023-08-08T05:04:52;0.60;;;0.30;;
44214;SDS011;29884;47.450;19.124;2023-08-08T05:07:17;0.45;;;0.20;;
44214;SDS011;29884;47.450;19.124;2023-08-08T05:09:43;1.40;;;0.20;;
44214;SDS011;29884;47.450;19.124;2023-08-08T05:12:09;2.08;;;0.20;;
44214;SDS011;29884;47.450;19.124;2023-08-08T05:14:34;0.45;;;0.20;;
44214;SDS011;29884;47.450;19.124;2023-08-08T05:17:01;0.20;;;0.20;;
44214;SDS011;29884;47.450;19.124;2023-08-08T05:19:28;0.73;;;0.13;;
44214;SDS011;29884;47.450;19.124;2023-08-08T05:21:53;0.20;;;0.10;;
44214;SDS011;29884;47.450;19.124;2023-08-08T05:24:19;0.77;;;0.20;;
44214;SDS011;29884;47.450;19.124;2023-08-08T05:26:45;0.82;;;0.20;;
44214;SDS011;29884;47.450;19.124;2023-08-08T05:29:11;0.57;;;0.20;;
44214;SDS011;29884;47.450;19.124;2023-08-08T05:31:36;0.70;;;0.20;;
44214;SDS011;29884;47.450;19.124;2023-08-08T05:34:02;0.47;;;0.22;;
44214;SDS011;29884;47.450;19.124;2023-08-08T05:36:28;1.77;;;0.20;;
44214;SDS011;29884;47.450;19.124;2023-08-08T05:38:54;0.40;;;0.20;;
44214;SDS011;29884;47.450;19.124;2023-08-08T05:41:19;1.05;;;0.30;;
44214;SDS011;29884;47.450;19.124;2023-08-08T05:43:45;0.20;;;0.20;;
44214;SDS011;29884;47.450;19.124;2023-08-08T05:46:11;0.30;;;0.20;;
44214;SDS011;29884;47.450;19.124;2023-08-08T05:48:37;1.65;;;0.20;;
44214;SDS011;29884;47.450;19.124;2023-08-08T05:51:02;0.70;;;0.20;;
44214;SDS011;29884;47.450;19.124;2023-08-08T05:53:30;0.50;;;0.20;;
44214;SDS011;29884;47.450;19.124;2023-08-08T05:55:59;0.60;;;0.30;;
44214;SDS011;29884;47.450;19.124;2023-08-08T05:58:24;0.60;;;0.22;;
44214;SDS011;29884;47.450;19.124;2023-08-08T06:00:50;0.40;;;0.20;;
44214;SDS011;29884;47.450;19.124;2023-08-08T06:03:17;2.55;;;0.20;;
44214;SDS011;29884;47.450;19.124;2023-08-08T06:05:42;0.43;;;0.20;;
44214;SDS011;29884;47.450;19.124;2023-08-08T06:08:08;1.05;;;0.20;;
44214;SDS011;29884;47.450;19.124;2023-08-08T06:10:37;0.38;;;0.25;;
44214;SDS011;29884;47.450;19.124;2023-08-08T06:13:03;0.50;;;0.20;;
44214;SDS011;29884;47.450;19.124;2023-08-08T06:15:28;0.77;;;0.20;;
44214;SDS011;29884;47.450;19.124;2023-08-08T06:17:54;1.10;;;0.20;;
44214;SDS011;29884;47.450;19.124;2023-08-08T06:20:20;0.75;;;0.32;;
44214;SDS011;29884;47.450;19.124;2023-08-08T06:22:46;0.80;;;0.20;;
44214;SDS011;29884;47.450;19.124;2023-08-08T06:25:12;1.73;;;0.20;;
44214;SDS011;29884;47.450;19.124;2023-08-08T06:27:38;0.38;;;0.20;;
44214;SDS011;29884;47.450;19.124;2023-08-08T06:30:04;1.48;;;0.20;;
44214;SDS011;29884;47.450;19.124;2023-08-08T06:32:30;0.35;;;0.13;;
44214;SDS011;29884;47.450;19.124;2023-08-08T06:34:56;0.85;;;0.20;;
44214;SDS011;29884;47.450;19.124;2023-08-08T06:37:22;0.95;;;0.30;;
44214;SDS011;29884;47.450;19.124;2023-08-08T06:39:47;0.80;;;0.30;;
44214;SDS011;29884;47.450;19.124;2023-08-08T06:42:13;1.25;;;0.20;;
44214;SDS011;29884;47.450;19.124;2023-08-08T06:44:42;0.82;;;0.20;;
44214;SDS011;29884;47.450;19.124;2023-08-08T06:47:09;2.20;;;0.32;;
44214;SDS011;29884;47.450;19.124;2023-08-08T06:49:36;0.50;;;0.28;;
44214;SDS011;29884;47.450;19.124;2023-08-08T06:52:02;0.60;;;0.30;;
44214;SDS011;29884;47.450;19.124;2023-08-08T06:54:28;1.48;;;0.30;;
44214;SDS011;29884;47.450;19.124;2023-08-08T06:56:54;0.70;;;0.30;;
44214;SDS011;29884;47.450;19.124;2023-08-08T06:59:22;2.72;;;0.32;;
44214;SDS011;29884;47.450;19.124;2023-08-08T07:01:48;0.95;;;0.30;;
44214;SDS011;29884;47.450;19.124;2023-08-08T07:04:14;0.68;;;0.30;;
44214;SDS011;29884;47.450;19.124;2023-08-08T07:06:42;0.57;;;0.30;;
44214;SDS011;29884;47.450;19.124;2023-08-08T07:09:08;1.08;;;0.30;;
44214;SDS011;29884;47.450;19.124;2023-08-08T07:11:37;0.65;;;0.30;;
44214;SDS011;29884;47.450;19.124;2023-08-08T07:14:03;1.25;;;0.30;;
44214;SDS011;29884;47.450;19.124;2023-08-08T07:16:29;0.90;;;0.20;;
44214;SDS011;29884;47.450;19.124;2023-08-08T07:18:54;0.77;;;0.28;;
44214;SDS011;29884;47.450;19.124;2023-08-08T07:21:20;0.60;;;0.32;;
44214;SDS011;29884;47.450;19.124;2023-08-08T07:23:46;0.98;;;0.25;;
44214;SDS011;29884;47.450;19.124;2023-08-08T07:26:12;1.02;;;0.30;;
44214;SDS011;29884;47.450;19.124;2023-08-08T07:28:37;0.60;;;0.40;;
44214;SDS011;29884;47.450;19.124;2023-08-08T07:31:03;0.95;;;0.30;;
44214;SDS011;29884;47.450;19.124;2023-08-08T07:33:32;1.10;;;0.30;;
44214;SDS011;29884;47.450;19.124;2023-08-08T07:35:58;0.57;;;0.38;;
44214;SDS011;29884;47.450;19.124;2023-08-08T07:38:23;1.00;;;0.30;;
44214;SDS011;29884;47.450;19.124;2023-08-08T07:40:49;0.95;;;0.20;;
44214;SDS011;29884;47.450;19.124;2023-08-08T07:43:15;0.52;;;0.22;;
44214;SDS011;29884;47.450;19.124;2023-08-08T07:45:41;1.33;;;0.30;;
44214;SDS011;29884;47.450;19.124;2023-08-08T07:48:07;0.75;;;0.30;;
44214;SDS011;29884;47.450;19.124;2023-08-08T07:50:33;0.85;;;0.30;;
44214;SDS011;29884;47.450;19.124;2023-08-08T07:52:59;0.80;;;0.20;;
44214;SDS011;29884;47.450;19.124;2023-08-08T07:55:24;0.63;;;0.30;;
44214;SDS011;29884;47.450;19.124;2023-08-08T07:57:50;0.77;;;0.30;;
44214;SDS011;29884;47.450;19.124;2023-08-08T08:00:16;0.88;;;0.20;;
44214;SDS011;29884;47.450;19.124;2023-08-08T08:02:43;0.77;;;0.28;;
44214;SDS011;29884;47.450;19.124;2023-08-08T08:05:10;0.52;;;0.30;;
44214;SDS011;29884;47.450;19.124;2023-08-08T08:07:36;2.80;;;0.35;;
44214;SDS011;29884;47.450;19.124;2023-08-08T08:10:03;2.00;;;0.30;;
44214;SDS011;29884;47.450;19.124;2023-08-08T08:12:30;1.05;;;0.60;;
44214;SDS011;29884;47.450;19.124;2023-08-08T08:14:56;1.13;;;0.60;;
44214;SDS011;29884;47.450;19.124;2023-08-08T08:17:22;0.82;;;0.30;;
44214;SDS011;29884;47.450;19.124;2023-08-08T08:19:49;1.30;;;0.30;;
44214;SDS011;29884;47.450;19.124;2023-08-08T08:22:16;1.55;;;0.20;;
44214;SDS011;29884;47.450;19.124;2023-08-08T08:24:42;0.32;;;0.20;;
44214;SDS011;29884;47.450;19.124;2023-08-08T08:27:07;1.58;;;0.28;;
44214;SDS011;29884;47.450;19.124;2023-08-08T08:29:33;1.27;;;0.30;;
44214;SDS011;29884;47.450;19.124;2023-08-08T08:31:59;1.27;;;0.38;;
44214;SDS011;29884;47.450;19.124;2023-08-08T08:34:25;1.15;;;0.30;;
44214;SDS011;29884;47.450;19.124;2023-08-08T08:36:50;0.90;;;0.30;;
44214;SDS011;29884;47.450;19.124;2023-08-08T08:39:16;0.47;;;0.20;;
44214;SDS011;29884;47.450;19.124;2023-08-08T08:41:42;1.05;;;0.25;;
44214;SDS011;29884;47.450;19.124;2023-08-08T08:44:13;0.63;;;0.20;;
44214;SDS011;29884;47.450;19.124;2023-08-08T08:46:41;0.45;;;0.20;;
44214;SDS011;29884;47.450;19.124;2023-08-08T08:49:07;0.70;;;0.20;;
44214;SDS011;29884;47.450;19.124;2023-08-08T08:51:35;0.70;;;0.20;;
44214;SDS011;29884;47.450;19.124;2023-08-08T08:54:01;0.50;;;0.20;;
44214;SDS011;29884;47.450;19.124;2023-08-08T08:56:27;0.40;;;0.20;;
44214;SDS011;29884;47.450;19.124;2023-08-08T08:58:54;0.63;;;0.20;;
44214;SDS011;29884;47.450;19.124;2023-08-08T09:01:20;0.70;;;0.20;;
44214;SDS011;29884;47.450;19.124;2023-08-08T09:03:48;0.52;;;0.20;;
44214;SDS011;29884;47.450;19.124;2023-08-08T09:06:14;1.58;;;0.20;;
44214;SDS011;29884;47.450;19.124;2023-08-08T09:08:41;0.30;;;0.17;;
44214;SDS011;29884;47.450;19.124;2023-08-08T09:11:07;0.50;;;0.30;;
44214;SDS011;29884;47.450;19.124;2023-08-08T09:13:39;0.50;;;0.20;;
44214;SDS011;29884;47.450;19.124;2023-08-08T09:16:08;1.85;;;0.30;;
44214;SDS011;29884;47.450;19.124;2023-08-08T09:18:35;1.00;;;0.30;;
44214;SDS011;29884;47.450;19.124;2023-08-08T09:21:03;0.77;;;0.20;;
44214;SDS011;29884;47.450;19.124;2023-08-08T09:23:29;2.17;;;0.30;;
44214;SDS011;29884;47.450;19.124;2023-08-08T09:25:55;0.52;;;0.25;;
44214;SDS011;29884;47.450;19.124;2023-08-08T09:28:21;0.15;;;0.10;;
44214;SDS011;29884;47.450;19.124;2023-08-08T09:30:47;1.85;;;0.22;;
44214;SDS011;29884;47.450;19.124;2023-08-08T09:33:13;0.65;;;0.20;;
44214;SDS011;29884;47.450;19.124;2023-08-08T09:35:39;0.95;;;0.30;;
44214;SDS011;29884;47.450;19.124;2023-08-08T09:38:05;0.65;;;0.20;;
44214;SDS011;29884;47.450;19.124;2023-08-08T09:40:31;1.55;;;0.30;;
44214;SDS011;29884;47.450;19.124;2023-08-08T09:42:57;0.60;;;0.20;;
44214;SDS011;29884;47.450;19.124;2023-08-08T09:45:25;1.08;;;0.20;;
44214;SDS011;29884;47.450;19.124;2023-08-08T09:47:51;1.20;;;0.20;;
44214;SDS011;29884;47.450;19.124;2023-08-08T09:50:17;1.42;;;0.20;;
44214;SDS011;29884;47.450;19.124;2023-08-08T09:52:45;0.52;;;0.20;;
44214;SDS011;29884;47.450;19.124;2023-08-08T09:55:11;1.48;;;0.20;;
44214;SDS011;29884;47.450;19.124;2023-08-08T09:57:40;0.70;;;0.30;;
44214;SDS011;29884;47.450;19.124;2023-08-08T10:00:07;0.82;;;0.10;;
44214;SDS011;29884;47.450;19.124;2023-08-08T10:02:42;0.85;;;0.30;;
44214;SDS011;29884;47.450;19.124;2023-08-08T10:05:09;0.40;;;0.22;;
44214;SDS011;29884;47.450;19.124;2023-08-08T10:07:38;1.08;;;0.22;;
44214;SDS011;29884;47.450;19.124;2023-08-08T10:10:06;0.35;;;0.20;;
44214;SDS011;29884;47.450;19.124;2023-08-08T10:12:34;1.67;;;0.30;;
44214;SDS011;29884;47.450;19.124;2023-08-08T10:15:08;0.63;;;0.20;;
44214;SDS011;29884;47.450;19.124;2023-08-08T10:17:37;0.55;;;0.20;;
44214;SDS011;29884;47.450;19.124;2023-08-08T10:20:04;0.60;;;0.20;;
44214;SDS011;29884;47.450;19.124;2023-08-08T10:22:43;0.75;;;0.20;;
44214;SDS011;29884;47.450;19.124;2023-08-08T10:25:24;2.63;;;0.30;;
44214;SDS011;29884;47.450;19.124;2023-08-08T10:28:13;0.30;;;0.15;;
44214;SDS011;29884;47.450;19.124;2023-08-08T10:30:42;0.60;;;0.20;;
44214;SDS011;29884;47.450;19.124;2023-08-08T10:33:19;1.73;;;0.28;;
44214;SDS011;29884;47.450;19.124;2023-08-08T10:38:41;0.80;;;0.20;;
44214;SDS011;29884;47.450;19.124;2023-08-08T10:41:09;0.88;;;0.20;;
44214;SDS011;29884;47.450;19.124;2023-08-08T10:43:36;0.70;;;0.30;;
44214;SDS011;29884;47.450;19.124;2023-08-08T10:46:02;0.73;;;0.30;;
44214;SDS011;29884;47.450;19.124;2023-08-08T10:48:28;0.40;;;0.20;;
44214;SDS011;29884;47.450;19.124;2023-08-08T10:50:55;0.60;;;0.10;;
44214;SDS011;29884;47.450;19.124;2023-08-08T10:53:29;1.67;;;0.30;;
44214;SDS011;29884;47.450;19.124;2023-08-08T10:55:59;0.50;;;0.20;;
44214;SDS011;29884;47.450;19.124;2023-08-08T10:58:36;0.70;;;0.30;;
44214;SDS011;29884;47.450;19.124;2023-08-08T11:01:03;0.47;;;0.30;;
44214;SDS011;29884;47.450;19.124;2023-08-08T11:03:33;0.65;;;0.20;;
44214;SDS011;29884;47.450;19.124;2023-08-08T11:06:03;1.90;;;0.20;;
44214;SDS011;29884;47.450;19.124;2023-08-08T11:08:31;0.68;;;0.20;;
44214;SDS011;29884;47.450;19.124;2023-08-08T11:10:57;0.52;;;0.20;;
44214;SDS011;29884;47.450;19.124;2023-08-08T11:13:24;2.35;;;0.20;;
44214;SDS011;29884;47.450;19.124;2023-08-08T11:15:49;1.38;;;0.30;;
44214;SDS011;29884;47.450;19.124;2023-08-08T11:18:15;0.40;;;0.20;;
44214;SDS011;29884;47.450;19.124;2023-08-08T11:20:41;1.35;;;0.30;;
44214;SDS011;29884;47.450;19.124;2023-08-08T11:23:07;0.68;;;0.20;;
44214;SDS011;29884;47.450;19.124;2023-08-08T11:25:36;0.90;;;0.30;;
44214;SDS011;29884;47.450;19.124;2023-08-08T11:28:02;0.40;;;0.20;;
44214;SDS011;29884;47.450;19.124;2023-08-08T11:30:29;0.63;;;0.30;;
44214;SDS011;29884;47.450;19.124;2023-08-08T11:32:57;0.60;;;0.20;;
44214;SDS011;29884;47.450;19.124;2023-08-08T11:35:24;0.60;;;0.30;;
44214;SDS011;29884;47.450;19.124;2023-08-08T11:37:52;0.70;;;0.20;;
44214;SDS011;29884;47.450;19.124;2023-08-08T11:40:20;0.50;;;0.20;;
44214;SDS011;29884;47.450;19.124;2023-08-08T11:42:47;1.13;;;0.50;;
44214;SDS011;29884;47.450;19.124;2023-08-08T11:45:15;0.75;;;0.30;;
44214;SDS011;29884;47.450;19.124;2023-08-08T11:47:41;0.50;;;0.20;;
44214;SDS011;29884;47.450;19.124;2023-08-08T11:50:07;0.47;;;0.20;;
44214;SDS011;29884;47.450;19.124;2023-08-08T11:52:35;0.50;;;0.22;;
44214;SDS011;29884;47.450;19.124;2023-08-08T11:55:06;0.40;;;0.20;;
44214;SDS011;29884;47.450;19.124;2023-08-08T11:57:33;0.47;;;0.30;;
44214;SDS011;29884;47.450;19.124;2023-08-08T12:00:06;0.75;;;0.30;;
44214;SDS011;29884;47.450;19.124;2023-08-08T12:02:34;0.85;;;0.30;;
44214;SDS011;29884;47.450;19.124;2023-08-08T12:05:04;0.50;;;0.20;;
44214;SDS011;29884;47.450;19.124;2023-08-08T12:07:31;0.55;;;0.30;;
44214;SDS011;29884;47.450;19.124;2023-08-08T12:10:00;0.50;;;0.20;;
44214;SDS011;29884;47.450;19.124;2023-08-08T12:12:28;1.08;;;0.30;;
44214;SDS011;29884;47.450;19.124;2023-08-08T12:14:57;2.63;;;0.30;;
44214;SDS011;29884;47.450;19.124;2023-08-08T12:17:23;0.40;;;0.28;;
44214;SDS011;29884;47.450;19.124;2023-08-08T12:19:49;0.40;;;0.20;;
44214;SDS011;29884;47.450;19.124;2023-08-08T12:22:14;0.70;;;0.30;;
44214;SDS011;29884;47.450;19.124;2023-08-08T12:24:40;0.68;;;0.30;;
44214;SDS011;29884;47.450;19.124;2023-08-08T12:27:06;0.60;;;0.30;;
44214;SDS011;29884;47.450;19.124;2023-08-08T12:29:32;0.50;;;0.22;;
44214;SDS011;29884;47.450;19.124;2023-08-08T12:32:01;0.85;;;0.30;;
44214;SDS011;29884;47.450;19.124;2023-08-08T12:34:27;0.20;;;0.20;;
44214;SDS011;29884;47.450;19.124;2023-08-08T12:36:53;0.55;;;0.28;;
44214;SDS011;29884;47.450;19.124;2023-08-08T12:39:19;0.77;;;0.30;;
44214;SDS011;29884;47.450;19.124;2023-08-08T12:41:44;2.00;;;0.40;;
44214;SDS011;29884;47.450;19.124;2023-08-08T12:44:10;0.63;;;0.20;;
44214;SDS011;29884;47.450;19.124;2023-08-08T12:46:36;1.00;;;0.30;;
44214;SDS011;29884;47.450;19.124;2023-08-08T12:49:01;0.35;;;0.20;;
44214;SDS011;29884;47.450;19.124;2023-08-08T12:51:28;0.65;;;0.30;;
44214;SDS011;29884;47.450;19.124;2023-08-08T12:53:54;0.80;;;0.30;;
44214;SDS011;29884;47.450;19.124;2023-08-08T12:56:20;0.98;;;0.30;;
44214;SDS011;29884;47.450;19.124;2023-08-08T12:58:46;0.75;;;0.30;;
44214;SDS011;29884;47.450;19.124;2023-08-08T13:01:11;0.32;;;0.20;;
44214;SDS011;29884;47.450;19.124;2023-08-08T13:03:37;0.60;;;0.20;;
44214;SDS011;29884;47.450;19.124;2023-08-08T13:06:04;0.50;;;0.20;;
44214;SDS011;29884;47.450;19.124;2023-08-08T13:08:30;0.50;;;0.30;;
44214;SDS011;29884;47.450;19.124;2023-08-08T13:10:57;0.35;;;0.20;;
44214;SDS011;29884;47.450;19.124;2023-08-08T13:13:23;0.50;;;0.20;;
44214;SDS011;29884;47.450;19.124;2023-08-08T13:15:51;0.55;;;0.20;;
44214;SDS011;29884;47.450;19.124;2023-08-08T13:18:17;0.68;;;0.30;;
44214;SDS011;29884;47.450;19.124;2023-08-08T13:20:43;0.45;;;0.20;;
44214;SDS011;29884;47.450;19.124;2023-08-08T13:23:08;0.65;;;0.20;;
44214;SDS011;29884;47.450;19.124;2023-08-08T13:25:34;0.68;;;0.25;;
44214;SDS011;29884;47.450;19.124;2023-08-08T13:28:00;2.67;;;0.40;;
44214;SDS011;29884;47.450;19.124;2023-08-08T13:30:28;0.55;;;0.20;;
44214;SDS011;29884;47.450;19.124;2023-08-08T13:32:54;1.42;;;0.22;;
44214;SDS011;29884;47.450;19.124;2023-08-08T13:35:20;0.85;;;0.32;;
44214;SDS011;29884;47.450;19.124;2023-08-08T13:37:46;0.38;;;0.22;;
44214;SDS011;29884;47.450;19.124;2023-08-08T13:40:16;0.50;;;0.20;;
44214;SDS011;29884;47.450;19.124;2023-08-08T13:42:41;0.30;;;0.20;;
44214;SDS011;29884;47.450;19.124;2023-08-08T13:45:09;1.40;;;0.20;;
44214;SDS011;29884;47.450;19.124;2023-08-08T13:47:35;0.40;;;0.20;;
44214;SDS011;29884;47.450;19.124;2023-08-08T13:50:00;0.50;;;0.20;;
44214;SDS011;29884;47.450;19.124;2023-08-08T13:52:26;0.30;;;0.10;;
44214;SDS011;29884;47.450;19.124;2023-08-08T13:54:53;0.30;;;0.20;;
44214;SDS011;29884;47.450;19.124;2023-08-08T13:57:20;0.30;;;0.20;;
44214;SDS011;29884;47.450;19.124;2023-08-08T13:59:46;0.75;;;0.20;;
44214;SDS011;29884;47.450;19.124;2023-08-08T14:02:11;0.30;;;0.20;;
44214;SDS011;29884;47.450;19.124;2023-08-08T14:04:37;0.30;;;0.20;;
44214;SDS011;29884;47.450;19.124;2023-08-08T14:07:03;0.47;;;0.10;;
44214;SDS011;29884;47.450;19.124;2023-08-08T14:09:28;0.20;;;0.20;;
44214;SDS011;29884;47.450;19.124;2023-08-08T14:11:54;0.32;;;0.20;;
44214;SDS011;29884;47.450;19.124;2023-08-08T14:14:20;0.50;;;0.20;;
44214;SDS011;29884;47.450;19.124;2023-08-08T14:16:45;9.15;;;0.20;;
44214;SDS011;29884;47.450;19.124;2023-08-08T14:19:11;0.50;;;0.20;;
44214;SDS011;29884;47.450;19.124;2023-08-08T14:21:38;0.52;;;0.20;;
44214;SDS011;29884;47.450;19.124;2023-08-08T14:24:03;0.40;;;0.20;;
44214;SDS011;29884;47.450;19.124;2023-08-08T14:26:29;0.82;;;0.20;;
44214;SDS011;29884;47.450;19.124;2023-08-08T14:28:56;0.35;;;0.20;;
44214;SDS011;29884;47.450;19.124;2023-08-08T14:31:22;0.10;;;0.10;;
44214;SDS011;29884;47.450;19.124;2023-08-08T14:33:48;0.63;;;0.20;;